sensor_id;sensor_type;location;lat;lon;timestamp;pressure;altitude;pressure_sealevel;temperature;humidity
73934;BME280;62286;50.528;18.284;2022-12-10T00:00:54;97831.88;;;22.69;36.09
73934;BME280;62286;50.528;18.284;2022-12-10T00:03:19;97826.00;;;22.67;36.12
73934;BME280;62286;50.528;18.284;2022-12-10T00:05:44;97823.97;;;22.68;36.22
73934;BME280;62286;50.528;18.284;2022-12-10T00:08:09;97814.81;;;22.67;36.31
73934;BME280;62286;50.528;18.284;2022-12-10T00:10:37;97814.03;;;22.67;36.17
73934;BME280;62286;50.528;18.284;2022-12-10T00:13:03;97819.59;;;22.67;36.14
73934;BME280;62286;50.528;18.284;2022-12-10T00:15:28;97824.41;;;22.66;36.48
73934;BME280;62286;50.528;18.284;2022-12-10T00:17:53;97830.00;;;22.66;36.13
73934;BME280;62286;50.528;18.284;2022-12-10T00:20:18;97830.47;;;22.65;36.07
73934;BME280;62286;50.528;18.284;2022-12-10T00:22:43;97828.13;;;22.63;36.40
73934;BME280;62286;50.528;18.284;2022-12-10T00:25:09;97841.78;;;22.61;36.08
73934;BME280;62286;50.528;18.284;2022-12-10T00:27:34;97846.59;;;22.61;36.43
73934;BME280;62286;50.528;18.284;2022-12-10T00:29:59;97842.56;;;22.62;36.15
73934;BME280;62286;50.528;18.284;2022-12-10T00:32:24;97839.00;;;22.61;36.34
73934;BME280;62286;50.528;18.284;2022-12-10T00:34:49;97841.78;;;22.61;36.46
73934;BME280;62286;50.528;18.284;2022-12-10T00:37:14;97844.13;;;22.63;36.12
73934;BME280;62286;50.528;18.284;2022-12-10T00:39:39;97850.00;;;22.65;36.08
73934;BME280;62286;50.528;18.284;2022-12-10T00:42:04;97846.44;;;22.64;36.17
73934;BME280;62286;50.528;18.284;2022-12-10T00:44:29;97852.81;;;22.65;36.21
73934;BME280;62286;50.528;18.284;2022-12-10T00:46:55;97854.34;;;22.66;35.97
73934;BME280;62286;50.528;18.284;2022-12-10T00:49:20;97849.88;;;22.68;35.93
73934;BME280;62286;50.528;18.284;2022-12-10T00:51:45;97861.06;;;22.68;36.27
73934;BME280;62286;50.528;18.284;2022-12-10T00:54:10;97855.00;;;22.70;35.94
73934;BME280;62286;50.528;18.284;2022-12-10T00:56:35;97850.19;;;22.70;36.15
73934;BME280;62286;50.528;18.284;2022-12-10T00:59:00;97857.34;;;22.71;36.00
73934;BME280;62286;50.528;18.284;2022-12-10T01:01:30;97860.59;;;22.70;35.84
73934;BME280;62286;50.528;18.284;2022-12-10T01:03:56;97863.69;;;22.72;35.98
73934;BME280;62286;50.528;18.284;2022-12-10T01:06:41;97855.00;;;22.70;36.11
73934;BME280;62286;50.528;18.284;2022-12-10T01:09:08;97845.38;;;22.71;35.85
73934;BME280;62286;50.528;18.284;2022-12-10T01:11:35;97833.44;;;22.70;36.12
73934;BME280;62286;50.528;18.284;2022-12-10T01:14:00;97846.16;;;22.71;35.76
73934;BME280;62286;50.528;18.284;2022-12-10T01:16:26;97841.34;;;22.72;35.99
73934;BME280;62286;50.528;18.284;2022-12-10T01:18:54;97847.72;;;22.72;35.76
73934;BME280;62286;50.528;18.284;2022-12-10T01:21:20;97848.50;;;22.73;35.94
73934;BME280;62286;50.528;18.284;2022-12-10T01:23:46;97843.69;;;22.73;35.99
73934;BME280;62286;50.528;18.284;2022-12-10T01:26:16;97841.69;;;22.74;35.99
73934;BME280;62286;50.528;18.284;2022-12-10T01:28:41;97848.06;;;22.74;36.09
73934;BME280;62286;50.528;18.284;2022-12-10T01:31:09;97848.84;;;22.75;35.94
73934;BME280;62286;50.528;18.284;2022-12-10T01:33:34;97847.59;;;22.76;35.90
73934;BME280;62286;50.528;18.284;2022-12-10T01:36:03;97844.03;;;22.75;35.99
73934;BME280;62286;50.528;18.284;2022-12-10T01:38:28;97843.56;;;22.77;35.63
73934;BME280;62286;50.528;18.284;2022-12-10T01:40:54;97847.13;;;22.77;35.67
73934;BME280;62286;50.528;18.284;2022-12-10T01:43:19;97851.16;;;22.76;35.92
73934;BME280;62286;50.528;18.284;2022-12-10T01:45:44;97853.66;;;22.74;35.87
73934;BME280;62286;50.528;18.284;2022-12-10T01:48:09;97843.38;;;22.71;35.71
73934;BME280;62286;50.528;18.284;2022-12-10T01:50:34;97855.47;;;22.68;35.71
73934;BME280;62286;50.528;18.284;2022-12-10T01:52:59;97857.94;;;22.66;35.67
73934;BME280;62286;50.528;18.284;2022-12-10T01:58:05;97877.16;;;22.64;35.79
73934;BME280;62286;50.528;18.284;2022-12-10T02:00:31;97882.28;;;22.66;36.09
73934;BME280;62286;50.528;18.284;2022-12-10T02:03:00;97893.03;;;22.67;35.65
73934;BME280;62286;50.528;18.284;2022-12-10T02:05:35;97885.72;;;22.70;35.74
73934;BME280;62286;50.528;18.284;2022-12-10T02:13:05;97866.03;;;22.73;35.75
73934;BME280;62286;50.528;18.284;2022-12-10T02:15:32;97866.03;;;22.73;35.89
73934;BME280;62286;50.528;18.284;2022-12-10T02:20:37;97856.88;;;22.73;35.85
73934;BME280;62286;50.528;18.284;2022-12-10T02:23:15;97859.22;;;22.74;35.58
73934;BME280;62286;50.528;18.284;2022-12-10T02:26:01;97856.09;;;22.72;35.62
73934;BME280;62286;50.528;18.284;2022-12-10T02:31:13;97857.34;;;22.71;35.48
73934;BME280;62286;50.528;18.284;2022-12-10T02:33:42;97866.50;;;22.72;35.58
73934;BME280;62286;50.528;18.284;2022-12-10T02:36:08;97855.31;;;22.72;35.83
73934;BME280;62286;50.528;18.284;2022-12-10T02:38:35;97858.88;;;22.72;35.43
73934;BME280;62286;50.528;18.284;2022-12-10T02:41:02;97862.91;;;22.71;35.80
73934;BME280;62286;50.528;18.284;2022-12-10T02:43:29;97868.50;;;22.71;35.42
73934;BME280;62286;50.528;18.284;2022-12-10T02:45:56;97865.72;;;22.71;35.63
73934;BME280;62286;50.528;18.284;2022-12-10T02:48:22;97864.47;;;22.72;35.56
73934;BME280;62286;50.528;18.284;2022-12-10T02:50:48;97868.50;;;22.71;35.49
73934;BME280;62286;50.528;18.284;2022-12-10T02:53:13;97876.88;;;22.71;35.38
73934;BME280;62286;50.528;18.284;2022-12-10T02:55:55;97879.69;;;22.71;35.46
73934;BME280;62286;50.528;18.284;2022-12-10T02:59:00;97884.81;;;22.73;35.43
73934;BME280;62286;50.528;18.284;2022-12-10T03:01:32;97884.50;;;22.71;35.33
73934;BME280;62286;50.528;18.284;2022-12-10T03:04:01;97897.22;;;22.72;35.31
73934;BME280;62286;50.528;18.284;2022-12-10T03:06:35;97897.22;;;22.72;35.70
73934;BME280;62286;50.528;18.284;2022-12-10T03:09:06;97896.44;;;22.71;35.79
73934;BME280;62286;50.528;18.284;2022-12-10T03:11:32;97906.06;;;22.70;35.38
73934;BME280;62286;50.528;18.284;2022-12-10T03:14:05;97900.00;;;22.72;35.55
73934;BME280;62286;50.528;18.284;2022-12-10T03:16:36;97897.69;;;22.70;35.70
73934;BME280;62286;50.528;18.284;2022-12-10T03:19:07;97889.00;;;22.68;35.69
73934;BME280;62286;50.528;18.284;2022-12-10T03:21:35;97895.81;;;22.67;35.47
73934;BME280;62286;50.528;18.284;2022-12-10T03:24:01;97894.22;;;22.66;35.59
73934;BME280;62286;50.528;18.284;2022-12-10T03:26:27;97902.19;;;22.68;35.45
73934;BME280;62286;50.528;18.284;2022-12-10T03:28:55;97896.59;;;22.68;35.65
73934;BME280;62286;50.528;18.284;2022-12-10T03:31:21;97896.91;;;22.70;35.49
73934;BME280;62286;50.528;18.284;2022-12-10T03:33:46;97902.81;;;22.72;35.66
73934;BME280;62286;50.528;18.284;2022-12-10T03:36:12;97899.22;;;22.71;35.18
73934;BME280;62286;50.528;18.284;2022-12-10T03:38:38;97896.31;;;22.75;35.38
73934;BME280;62286;50.528;18.284;2022-12-10T03:41:04;97893.53;;;22.75;35.40
73934;BME280;62286;50.528;18.284;2022-12-10T03:43:29;97907.50;;;22.75;35.42
73934;BME280;62286;50.528;18.284;2022-12-10T03:45:54;97904.22;;;22.76;35.22
73934;BME280;62286;50.528;18.284;2022-12-10T03:48:19;97905.78;;;22.77;35.51
73934;BME280;62286;50.528;18.284;2022-12-10T03:50:44;97909.81;;;22.76;35.27
73934;BME280;62286;50.528;18.284;2022-12-10T03:53:10;97910.59;;;22.77;35.51
73934;BME280;62286;50.528;18.284;2022-12-10T03:55:35;97912.94;;;22.78;35.26
73934;BME280;62286;50.528;18.284;2022-12-10T03:58:00;97917.72;;;22.78;35.08
73934;BME280;62286;50.528;18.284;2022-12-10T04:00:25;97922.53;;;22.77;35.40
73934;BME280;62286;50.528;18.284;2022-12-10T04:02:50;97914.94;;;22.78;35.08
73934;BME280;62286;50.528;18.284;2022-12-10T04:05:15;97912.94;;;22.78;35.54
73934;BME280;62286;50.528;18.284;2022-12-10T04:07:40;97918.50;;;22.78;35.32
73934;BME280;62286;50.528;18.284;2022-12-10T04:10:06;97916.50;;;22.79;35.23
73934;BME280;62286;50.528;18.284;2022-12-10T04:12:31;97926.44;;;22.80;35.28
73934;BME280;62286;50.528;18.284;2022-12-10T04:14:56;97920.84;;;22.80;35.41
73934;BME280;62286;50.528;18.284;2022-12-10T04:17:21;97915.25;;;22.80;35.31
73934;BME280;62286;50.528;18.284;2022-12-10T04:19:46;97919.63;;;22.81;35.15
73934;BME280;62286;50.528;18.284;2022-12-10T04:22:11;97934.03;;;22.79;35.17
73934;BME280;62286;50.528;18.284;2022-12-10T04:24:37;97931.22;;;22.79;35.22
73934;BME280;62286;50.528;18.284;2022-12-10T04:27:04;97941.97;;;22.81;35.16
73934;BME280;62286;50.528;18.284;2022-12-10T04:29:30;97941.19;;;22.80;35.33
73934;BME280;62286;50.528;18.284;2022-12-10T04:31:56;97946.78;;;22.80;35.20
73934;BME280;62286;50.528;18.284;2022-12-10T04:34:22;97951.25;;;22.78;35.26
73934;BME280;62286;50.528;18.284;2022-12-10T04:36:48;97962.44;;;22.78;35.22
73934;BME280;62286;50.528;18.284;2022-12-10T04:39:13;97964.44;;;22.77;35.10
73934;BME280;62286;50.528;18.284;2022-12-10T04:41:39;97964.44;;;22.77;34.84
73934;BME280;62286;50.528;18.284;2022-12-10T04:44:04;97962.88;;;22.76;35.30
73934;BME280;62286;50.528;18.284;2022-12-10T04:46:30;97960.88;;;22.77;35.03
73934;BME280;62286;50.528;18.284;2022-12-10T04:48:55;97959.63;;;22.78;35.01
73934;BME280;62286;50.528;18.284;2022-12-10T04:51:20;97956.84;;;22.78;35.22
73934;BME280;62286;50.528;18.284;2022-12-10T04:53:45;97961.19;;;22.79;35.19
73934;BME280;62286;50.528;18.284;2022-12-10T04:56:10;97958.38;;;22.79;35.26
73934;BME280;62286;50.528;18.284;2022-12-10T04:58:35;97961.97;;;22.79;35.10
73934;BME280;62286;50.528;18.284;2022-12-10T05:01:01;97957.97;;;22.80;35.15
73934;BME280;62286;50.528;18.284;2022-12-10T05:03:26;97961.53;;;22.81;34.95
73934;BME280;62286;50.528;18.284;2022-12-10T05:05:52;97955.16;;;22.80;34.78
73934;BME280;62286;50.528;18.284;2022-12-10T05:08:17;97958.72;;;22.81;35.12
73934;BME280;62286;50.528;18.284;2022-12-10T05:10:42;97963.53;;;22.80;34.95
73934;BME280;62286;50.528;18.284;2022-12-10T05:13:07;97972.69;;;22.81;34.89
73934;BME280;62286;50.528;18.284;2022-12-10T05:15:32;97969.91;;;22.81;35.06
73934;BME280;62286;50.528;18.284;2022-12-10T05:17:57;97967.91;;;22.81;34.82
73934;BME280;62286;50.528;18.284;2022-12-10T05:20:22;97977.06;;;22.82;35.04
73934;BME280;62286;50.528;18.284;2022-12-10T05:22:47;97972.25;;;22.82;35.01
73934;BME280;62286;50.528;18.284;2022-12-10T05:25:12;97975.03;;;22.82;34.94
73934;BME280;62286;50.528;18.284;2022-12-10T05:27:38;97978.59;;;22.83;34.92
73934;BME280;62286;50.528;18.284;2022-12-10T05:30:03;97980.94;;;22.84;34.88
73934;BME280;62286;50.528;18.284;2022-12-10T05:32:28;97971.00;;;22.83;34.52
73934;BME280;62286;50.528;18.284;2022-12-10T05:34:53;97964.63;;;22.83;34.56
73934;BME280;62286;50.528;18.284;2022-12-10T05:37:18;97963.84;;;22.82;34.56
73934;BME280;62286;50.528;18.284;2022-12-10T05:39:43;97969.91;;;22.81;34.65
73934;BME280;62286;50.528;18.284;2022-12-10T05:42:09;97972.03;;;22.77;34.82
73934;BME280;62286;50.528;18.284;2022-12-10T05:44:34;97970.50;;;22.76;34.55
73934;BME280;62286;50.528;18.284;2022-12-10T05:46:59;97976.06;;;22.76;34.60
73934;BME280;62286;50.528;18.284;2022-12-10T05:49:24;97980.53;;;22.73;34.90
73934;BME280;62286;50.528;18.284;2022-12-10T05:51:49;97974.53;;;22.75;34.91
73934;BME280;62286;50.528;18.284;2022-12-10T05:54:14;97961.34;;;22.75;34.65
73934;BME280;62286;50.528;18.284;2022-12-10T05:56:39;97967.22;;;22.77;34.40
73934;BME280;62286;50.528;18.284;2022-12-10T05:59:05;97951.25;;;22.78;34.63
73934;BME280;62286;50.528;18.284;2022-12-10T06:01:31;97956.84;;;22.78;34.72
73934;BME280;62286;50.528;18.284;2022-12-10T06:03:58;97941.63;;;22.79;34.78
73934;BME280;62286;50.528;18.284;2022-12-10T06:06:24;97940.38;;;22.80;34.67
73934;BME280;62286;50.528;18.284;2022-12-10T06:08:49;97943.66;;;22.78;34.32
73934;BME280;62286;50.528;18.284;2022-12-10T06:11:15;97951.13;;;22.81;34.50
73934;BME280;62286;50.528;18.284;2022-12-10T06:13:40;97953.94;;;22.81;34.71
73934;BME280;62286;50.528;18.284;2022-12-10T06:16:05;97963.09;;;22.82;34.66
73934;BME280;62286;50.528;18.284;2022-12-10T06:18:30;97958.28;;;22.82;34.62
73934;BME280;62286;50.528;18.284;2022-12-10T06:20:56;97967.13;;;22.81;34.62
73934;BME280;62286;50.528;18.284;2022-12-10T06:23:21;97979.38;;;22.83;34.25
73934;BME280;62286;50.528;18.284;2022-12-10T06:25:46;97975.81;;;22.83;34.52
73934;BME280;62286;50.528;18.284;2022-12-10T06:28:11;97975.81;;;22.83;34.26
73934;BME280;62286;50.528;18.284;2022-12-10T06:30:36;97979.38;;;22.83;34.62
73934;BME280;62286;50.528;18.284;2022-12-10T06:33:01;97978.59;;;22.83;34.15
73934;BME280;62286;50.528;18.284;2022-12-10T06:35:26;97975.81;;;22.83;34.37
73934;BME280;62286;50.528;18.284;2022-12-10T06:37:52;97966.66;;;22.82;34.32
73934;BME280;62286;50.528;18.284;2022-12-10T06:40:17;97979.38;;;22.83;34.12
73934;BME280;62286;50.528;18.284;2022-12-10T06:42:42;97993.34;;;22.83;34.46
73934;BME280;62286;50.528;18.284;2022-12-10T06:45:07;97995.38;;;22.83;34.19
73934;BME280;62286;50.528;18.284;2022-12-10T06:47:33;97995.06;;;22.81;34.33
73934;BME280;62286;50.528;18.284;2022-12-10T06:49:58;97997.06;;;22.80;34.51
73934;BME280;62286;50.528;18.284;2022-12-10T06:52:23;97998.28;;;22.79;34.40
73934;BME280;62286;50.528;18.284;2022-12-10T06:54:48;98003.09;;;22.79;34.53
73934;BME280;62286;50.528;18.284;2022-12-10T06:57:13;98008.41;;;22.42;34.18
73934;BME280;62286;50.528;18.284;2022-12-10T06:59:39;98008.09;;;22.62;34.33
73934;BME280;62286;50.528;18.284;2022-12-10T07:02:04;98022.97;;;22.81;34.25
73934;BME280;62286;50.528;18.284;2022-12-10T07:04:29;98016.81;;;22.86;34.14
73934;BME280;62286;50.528;18.284;2022-12-10T07:06:54;98023.19;;;22.87;33.99
73934;BME280;62286;50.528;18.284;2022-12-10T07:09:19;98029.97;;;22.85;33.91
73934;BME280;62286;50.528;18.284;2022-12-10T07:11:44;98024.53;;;22.82;34.47
73934;BME280;62286;50.528;18.284;2022-12-10T07:14:18;98017.84;;;22.79;34.25
73934;BME280;62286;50.528;18.284;2022-12-10T07:16:43;98011.59;;;22.75;34.48
73934;BME280;62286;50.528;18.284;2022-12-10T07:19:09;98010.94;;;22.71;34.80
73934;BME280;62286;50.528;18.284;2022-12-10T07:21:35;98011.09;;;22.68;34.44
73934;BME280;62286;50.528;18.284;2022-12-10T07:24:02;98011.22;;;22.64;34.77
73934;BME280;62286;50.528;18.284;2022-12-10T07:26:28;98007.75;;;22.60;34.97
73934;BME280;62286;50.528;18.284;2022-12-10T07:28:53;98011.47;;;22.57;34.74
73934;BME280;62286;50.528;18.284;2022-12-10T07:31:18;98014.38;;;22.53;34.82
73934;BME280;62286;50.528;18.284;2022-12-10T07:33:45;98024.44;;;22.51;34.89
73934;BME280;62286;50.528;18.284;2022-12-10T07:36:11;98032.97;;;22.47;35.04
73934;BME280;62286;50.528;18.284;2022-12-10T07:38:38;98030.28;;;22.44;35.00
73934;BME280;62286;50.528;18.284;2022-12-10T07:41:04;98040.34;;;22.41;35.37
73934;BME280;62286;50.528;18.284;2022-12-10T07:43:29;98042.47;;;22.37;35.14
73934;BME280;62286;50.528;18.284;2022-12-10T07:45:54;98040.59;;;22.34;35.63
73934;BME280;62286;50.528;18.284;2022-12-10T07:48:19;98049.06;;;22.30;35.39
73934;BME280;62286;50.528;18.284;2022-12-10T07:50:45;98050.78;;;22.28;35.60
73934;BME280;62286;50.528;18.284;2022-12-10T07:53:10;98052.88;;;22.24;35.57
73934;BME280;62286;50.528;18.284;2022-12-10T07:55:35;98057.38;;;22.21;35.33
73934;BME280;62286;50.528;18.284;2022-12-10T07:58:00;98046.31;;;22.18;35.43
73934;BME280;62286;50.528;18.284;2022-12-10T08:00:25;98054.03;;;22.14;35.29
73934;BME280;62286;50.528;18.284;2022-12-10T08:02:50;98045.31;;;22.12;35.58
73934;BME280;62286;50.528;18.284;2022-12-10T08:05:15;98053.69;;;22.12;35.73
73934;BME280;62286;50.528;18.284;2022-12-10T08:07:40;98066.88;;;22.11;35.45
73934;BME280;62286;50.528;18.284;2022-12-10T08:10:06;98064.84;;;22.12;35.62
73934;BME280;62286;50.528;18.284;2022-12-10T08:12:31;98063.63;;;22.13;35.74
73934;BME280;62286;50.528;18.284;2022-12-10T08:14:56;98059.50;;;22.17;35.78
73934;BME280;62286;50.528;18.284;2022-12-10T08:17:21;98057.69;;;22.23;35.76
73934;BME280;62286;50.528;18.284;2022-12-10T08:19:46;98062.56;;;22.32;35.85
73934;BME280;62286;50.528;18.284;2022-12-10T08:22:12;98062.00;;;22.37;35.79
73934;BME280;62286;50.528;18.284;2022-12-10T08:24:37;98058.66;;;22.42;35.75
73934;BME280;62286;50.528;18.284;2022-12-10T08:27:02;98060.88;;;22.47;35.80
73934;BME280;62286;50.528;18.284;2022-12-10T08:29:27;98065.53;;;22.50;35.37
73934;BME280;62286;50.528;18.284;2022-12-10T08:31:52;98067.88;;;22.52;35.72
73934;BME280;62286;50.528;18.284;2022-12-10T08:34:17;98069.44;;;22.53;35.82
73934;BME280;62286;50.528;18.284;2022-12-10T08:36:43;98075.81;;;22.53;35.58
73934;BME280;62286;50.528;18.284;2022-12-10T08:39:09;98077.03;;;22.52;35.62
73934;BME280;62286;50.528;18.284;2022-12-10T08:41:34;98074.69;;;22.51;35.94
73934;BME280;62286;50.528;18.284;2022-12-10T08:43:59;98068.78;;;22.49;36.07
73934;BME280;62286;50.528;18.284;2022-12-10T08:46:24;98065.66;;;22.47;35.65
73934;BME280;62286;50.528;18.284;2022-12-10T08:48:50;98064.56;;;22.44;36.05
73934;BME280;62286;50.528;18.284;2022-12-10T08:51:16;98061.44;;;22.42;35.85
73934;BME280;62286;50.528;18.284;2022-12-10T08:53:41;98064.34;;;22.39;36.07
73934;BME280;62286;50.528;18.284;2022-12-10T08:56:06;98070.06;;;22.35;35.75
73934;BME280;62286;50.528;18.284;2022-12-10T08:58:32;98069.41;;;22.31;35.90
73934;BME280;62286;50.528;18.284;2022-12-10T09:00:57;98067.50;;;22.28;36.10
73934;BME280;62286;50.528;18.284;2022-12-10T09:03:22;98057.69;;;22.23;36.03
73934;BME280;62286;50.528;18.284;2022-12-10T09:05:47;98059.72;;;22.23;36.17
73934;BME280;62286;50.528;18.284;2022-12-10T09:08:12;98059.38;;;22.21;36.33
73934;BME280;62286;50.528;18.284;2022-12-10T09:10:38;98068.19;;;22.19;36.15
73934;BME280;62286;50.528;18.284;2022-12-10T09:13:03;98057.16;;;22.16;36.50
73934;BME280;62286;50.528;18.284;2022-12-10T09:15:28;98071.56;;;22.14;36.44
73934;BME280;62286;50.528;18.284;2022-12-10T09:17:54;98071.22;;;22.12;36.32
73934;BME280;62286;50.528;18.284;2022-12-10T09:20:19;98057.41;;;22.09;36.38
73934;BME280;62286;50.528;18.284;2022-12-10T09:22:44;98059.03;;;22.06;36.59
73934;BME280;62286;50.528;18.284;2022-12-10T09:25:11;98055.81;;;22.08;36.55
73934;BME280;62286;50.528;18.284;2022-12-10T09:27:36;98046.66;;;22.07;36.35
73934;BME280;62286;50.528;18.284;2022-12-10T09:30:03;98049.88;;;22.06;36.34
73934;BME280;62286;50.528;18.284;2022-12-10T09:32:28;98045.84;;;22.07;36.36
73934;BME280;62286;50.528;18.284;2022-12-10T09:34:53;98038.28;;;22.07;36.55
73934;BME280;62286;50.528;18.284;2022-12-10T09:37:18;98031.03;;;22.10;36.67
73934;BME280;62286;50.528;18.284;2022-12-10T09:39:43;98028.56;;;22.12;36.61
73934;BME280;62286;50.528;18.284;2022-12-10T09:47:17;98021.19;;;22.18;36.61
73934;BME280;62286;50.528;18.284;2022-12-10T09:52:15;98027.09;;;22.20;36.45
73934;BME280;62286;50.528;18.284;2022-12-10T09:54:54;98029.47;;;22.21;36.42
73934;BME280;62286;50.528;18.284;2022-12-10T09:59:50;98024.66;;;22.22;36.57
73934;BME280;62286;50.528;18.284;2022-12-10T10:02:19;98023.88;;;22.21;36.85
73934;BME280;62286;50.528;18.284;2022-12-10T10:04:45;98032.25;;;22.21;36.39
73934;BME280;62286;50.528;18.284;2022-12-10T10:07:16;98033.91;;;22.19;36.74
73934;BME280;62286;50.528;18.284;2022-12-10T10:09:44;98032.34;;;22.18;36.50
73934;BME280;62286;50.528;18.284;2022-12-10T10:12:13;98035.59;;;22.16;36.66
73934;BME280;62286;50.528;18.284;2022-12-10T10:14:38;98039.63;;;22.15;36.61
73934;BME280;62286;50.528;18.284;2022-12-10T10:17:07;98045.66;;;22.14;36.76
73934;BME280;62286;50.528;18.284;2022-12-10T10:19:34;98052.47;;;22.13;36.71
73934;BME280;62286;50.528;18.284;2022-12-10T10:21:59;98038.97;;;22.11;36.91
73934;BME280;62286;50.528;18.284;2022-12-10T10:24:26;98029.03;;;22.10;36.71
73934;BME280;62286;50.528;18.284;2022-12-10T10:26:56;98022.69;;;22.10;36.71
73934;BME280;62286;50.528;18.284;2022-12-10T10:29:21;98022.31;;;22.08;36.64
73934;BME280;62286;50.528;18.284;2022-12-10T10:31:46;98029.09;;;22.07;36.91
73934;BME280;62286;50.528;18.284;2022-12-10T10:34:19;98025.22;;;22.04;36.66
73934;BME280;62286;50.528;18.284;2022-12-10T10:36:44;98023.22;;;22.04;36.66
73934;BME280;62286;50.528;18.284;2022-12-10T10:41:41;98022.09;;;22.02;36.97
73934;BME280;62286;50.528;18.284;2022-12-10T10:44:14;98016.19;;;22.00;36.66
73934;BME280;62286;50.528;18.284;2022-12-10T10:46:40;98012.59;;;21.99;36.64
73934;BME280;62286;50.528;18.284;2022-12-10T10:49:18;98013.06;;;21.98;36.80
73934;BME280;62286;50.528;18.284;2022-12-10T10:51:44;98017.88;;;21.97;36.81
73934;BME280;62286;50.528;18.284;2022-12-10T10:54:09;98017.09;;;21.97;36.63
73934;BME280;62286;50.528;18.284;2022-12-10T10:56:39;98027.00;;;21.98;36.75
73934;BME280;62286;50.528;18.284;2022-12-10T10:59:50;98036.63;;;21.97;36.78
73934;BME280;62286;50.528;18.284;2022-12-10T11:01:54;98022.66;;;21.97;36.72
73934;BME280;62286;50.528;18.284;2022-12-10T11:04:22;98032.59;;;21.98;36.94
73934;BME280;62286;50.528;18.284;2022-12-10T11:06:49;98031.81;;;21.97;37.08
73934;BME280;62286;50.528;18.284;2022-12-10T11:09:17;98020.66;;;21.97;36.92
73934;BME280;62286;50.528;18.284;2022-12-10T11:11:44;98013.06;;;21.98;37.11
73934;BME280;62286;50.528;18.284;2022-12-10T11:14:30;98008.72;;;21.97;36.95
73934;BME280;62286;50.528;18.284;2022-12-10T11:19:42;98011.50;;;21.97;37.09
73934;BME280;62286;50.528;18.284;2022-12-10T11:22:17;98016.63;;;21.98;37.01
73934;BME280;62286;50.528;18.284;2022-12-10T11:24:45;98009.81;;;21.99;36.96
73934;BME280;62286;50.528;18.284;2022-12-10T11:27:12;98022.56;;;22.00;36.79
73934;BME280;62286;50.528;18.284;2022-12-10T11:29:46;98022.88;;;22.02;36.87
73934;BME280;62286;50.528;18.284;2022-12-10T11:34:55;98026.00;;;22.04;37.22
73934;BME280;62286;50.528;18.284;2022-12-10T11:37:37;98026.78;;;22.05;36.86
73934;BME280;62286;50.528;18.284;2022-12-10T11:45:24;98033.13;;;22.06;37.41
73934;BME280;62286;50.528;18.284;2022-12-10T11:50:53;98016.38;;;22.06;37.08
73934;BME280;62286;50.528;18.284;2022-12-10T11:55:52;98023.66;;;22.03;37.13
73934;BME280;62286;50.528;18.284;2022-12-10T12:00:48;98021.31;;;22.01;37.12
73934;BME280;62286;50.528;18.284;2022-12-10T12:13:27;98027.16;;;21.94;37.13
73934;BME280;62286;50.528;18.284;2022-12-10T12:15:59;98028.03;;;21.91;37.15
73934;BME280;62286;50.528;18.284;2022-12-10T12:21:04;98031.28;;;21.90;37.22
73934;BME280;62286;50.528;18.284;2022-12-10T12:26:08;98025.38;;;21.88;37.32
73934;BME280;62286;50.528;18.284;2022-12-10T12:28:40;98022.56;;;21.88;37.35
73934;BME280;62286;50.528;18.284;2022-12-10T12:31:11;98019.78;;;21.88;37.38
73934;BME280;62286;50.528;18.284;2022-12-10T12:36:10;98007.41;;;21.89;37.33
73934;BME280;62286;50.528;18.284;2022-12-10T12:41:45;98001.38;;;21.90;37.28
73934;BME280;62286;50.528;18.284;2022-12-10T12:46:42;98004.47;;;21.92;37.25
73934;BME280;62286;50.528;18.284;2022-12-10T12:49:27;98003.25;;;21.93;37.36
73934;BME280;62286;50.528;18.284;2022-12-10T12:54:22;98000.44;;;21.93;37.34
73934;BME280;62286;50.528;18.284;2022-12-10T12:57:07;98004.06;;;21.94;37.20
73934;BME280;62286;50.528;18.284;2022-12-10T12:59:52;98021.13;;;21.96;37.40
73934;BME280;62286;50.528;18.284;2022-12-10T13:02:42;98018.31;;;21.96;37.34
73934;BME280;62286;50.528;18.284;2022-12-10T13:05:26;98004.38;;;21.96;37.11
73934;BME280;62286;50.528;18.284;2022-12-10T13:13:25;98020.34;;;21.95;37.17
73934;BME280;62286;50.528;18.284;2022-12-10T13:15:50;98012.41;;;21.94;37.16
73934;BME280;62286;50.528;18.284;2022-12-10T13:20:44;98017.19;;;21.93;37.24
73934;BME280;62286;50.528;18.284;2022-12-10T13:28:16;98031.28;;;21.90;37.22
73934;BME280;62286;50.528;18.284;2022-12-10T13:30:45;98019.34;;;21.89;37.25
73934;BME280;62286;50.528;18.284;2022-12-10T13:33:43;98026.16;;;21.88;37.58
73934;BME280;62286;50.528;18.284;2022-12-10T13:36:10;98025.38;;;21.88;37.48
73934;BME280;62286;50.528;18.284;2022-12-10T13:38:38;98025.00;;;21.86;37.50
73934;BME280;62286;50.528;18.284;2022-12-10T13:41:05;98025.00;;;21.86;37.36
73934;BME280;62286;50.528;18.284;2022-12-10T13:48:42;98023.00;;;21.86;37.58
73934;BME280;62286;50.528;18.284;2022-12-10T13:54:06;98029.03;;;21.85;37.14
73934;BME280;62286;50.528;18.284;2022-12-10T13:59:15;98036.19;;;21.86;37.39
73934;BME280;62286;50.528;18.284;2022-12-10T14:06:38;98051.81;;;21.83;37.31
73934;BME280;62286;50.528;18.284;2022-12-10T14:11:52;98052.59;;;21.84;37.52
73934;BME280;62286;50.528;18.284;2022-12-10T14:14:23;98060.94;;;21.84;37.63
73934;BME280;62286;50.528;18.284;2022-12-10T14:16:51;98058.63;;;21.82;37.33
73934;BME280;62286;50.528;18.284;2022-12-10T14:19:16;98059.41;;;21.83;37.39
73934;BME280;62286;50.528;18.284;2022-12-10T14:21:43;98062.19;;;21.83;37.63
73934;BME280;62286;50.528;18.284;2022-12-10T14:24:25;98058.16;;;21.84;37.38
73934;BME280;62286;50.528;18.284;2022-12-10T14:26:55;98061.41;;;21.82;37.71
73934;BME280;62286;50.528;18.284;2022-12-10T14:29:20;98069.00;;;21.82;37.57
73934;BME280;62286;50.528;18.284;2022-12-10T14:31:49;98056.28;;;21.81;37.32